createdAt,value
2022-11-30T00:01:31.144Z,11.07
2022-11-30T00:03:58.982Z,8.67
2022-11-30T00:06:26.346Z,8.33
2022-11-30T00:08:58.625Z,9.10
2022-11-30T00:11:28.342Z,9.80
2022-11-30T00:13:55.165Z,9.83
2022-11-30T00:16:22.885Z,10.93
2022-11-30T00:18:55.551Z,10.63
2022-11-30T00:21:22.272Z,10.60
2022-11-30T00:23:51.498Z,11.00
2022-11-30T00:26:22.829Z,10.87
2022-11-30T00:28:50.695Z,10.53
2022-11-30T00:31:18.643Z,13.13
2022-11-30T00:33:46.695Z,10.77
2022-11-30T00:36:17.676Z,9.20
2022-11-30T00:38:45.562Z,8.73
2022-11-30T00:41:13.230Z,10.27
2022-11-30T00:43:40.263Z,8.33
2022-11-30T00:46:10.645Z,9.90
2022-11-30T00:48:39.040Z,9.87
2022-11-30T00:51:09.051Z,10.97
2022-11-30T00:53:36.331Z,8.53
2022-11-30T00:56:03.050Z,11.67
2022-11-30T00:58:29.734Z,9.23
2022-11-30T01:00:56.507Z,10.27
2022-11-30T01:03:23.277Z,11.90
2022-11-30T01:05:49.958Z,10.73
2022-11-30T01:08:16.734Z,9.00
2022-11-30T01:10:44.642Z,9.63
2022-11-30T01:13:15.365Z,7.90
2022-11-30T01:15:44.586Z,9.57
2022-11-30T01:18:11.771Z,8.00
2022-11-30T01:20:44.213Z,8.43
2022-11-30T01:23:11.308Z,9.47
2022-11-30T01:25:38.590Z,10.47
2022-11-30T01:28:05.853Z,9.53
2022-11-30T01:30:32.688Z,7.23
2022-11-30T01:33:06.555Z,8.67
2022-11-30T01:35:33.319Z,8.07
2022-11-30T01:38:00.101Z,10.43
2022-11-30T01:40:26.850Z,10.50
2022-11-30T01:42:53.638Z,10.53
2022-11-30T01:45:20.331Z,11.97
2022-11-30T01:47:55.261Z,9.53
2022-11-30T01:50:33.110Z,10.97
2022-11-30T01:53:01.688Z,10.53
2022-11-30T01:55:40.202Z,9.10
2022-11-30T01:58:25.959Z,9.87
2022-11-30T02:00:53.006Z,9.67
2022-11-30T02:03:32.628Z,10.50
2022-11-30T02:06:00.519Z,11.70
2022-11-30T02:08:28.691Z,10.80
2022-11-30T02:11:02.736Z,9.93
2022-11-30T02:14:07.258Z,11.60
2022-11-30T02:17:10.628Z,9.17
2022-11-30T02:20:04.527Z,11.30
2022-11-30T02:23:07.566Z,9.70
2022-11-30T02:26:11.446Z,9.97
2022-11-30T02:29:13.342Z,9.13
2022-11-30T02:32:27.027Z,7.97
2022-11-30T02:34:57.451Z,9.37
2022-11-30T02:37:25.766Z,11.50
2022-11-30T02:40:10.159Z,10.00
2022-11-30T02:42:36.890Z,10.33
2022-11-30T02:45:04.846Z,9.83
2022-11-30T02:47:45.296Z,9.83
2022-11-30T02:50:22.615Z,8.80
2022-11-30T02:52:51.171Z,8.33
2022-11-30T02:55:20.631Z,10.23
2022-11-30T02:57:47.465Z,8.90
2022-11-30T03:00:15.384Z,10.03
2022-11-30T03:02:42.413Z,10.23
2022-11-30T03:05:10.113Z,10.50
2022-11-30T03:07:37.862Z,8.17
2022-11-30T03:10:06.407Z,8.17
2022-11-30T03:12:33.324Z,8.77
2022-11-30T03:15:03.584Z,8.63
2022-11-30T03:17:30.374Z,7.90
2022-11-30T03:19:57.214Z,9.80
2022-11-30T03:22:24.287Z,9.97
2022-11-30T03:24:58.210Z,8.10
2022-11-30T03:27:24.943Z,8.80
2022-11-30T03:29:51.690Z,9.23
2022-11-30T03:32:19.362Z,9.83
2022-11-30T03:34:46.262Z,9.33
2022-11-30T03:37:13.427Z,8.43
2022-11-30T03:39:40.231Z,11.10
2022-11-30T03:42:06.956Z,9.07
2022-11-30T03:44:33.688Z,8.90
2022-11-30T03:47:00.357Z,9.77
2022-11-30T03:49:27.231Z,8.60
2022-11-30T03:51:53.963Z,7.70
2022-11-30T03:54:21.640Z,10.47
2022-11-30T03:56:48.362Z,11.27
2022-11-30T03:59:15.100Z,12.00
2022-11-30T04:01:41.875Z,10.17
2022-11-30T04:04:08.739Z,11.27
2022-11-30T04:06:35.526Z,9.93
2022-11-30T04:09:02.829Z,9.50
2022-11-30T04:11:29.906Z,11.50
2022-11-30T04:13:56.659Z,10.77
2022-11-30T04:16:23.661Z,11.30
2022-11-30T04:18:50.391Z,11.63
2022-11-30T04:21:19.203Z,12.13
2022-11-30T04:23:54.256Z,11.43
2022-11-30T04:26:21.386Z,12.57
2022-11-30T04:28:48.281Z,12.07
2022-11-30T04:31:15.103Z,12.27
2022-11-30T04:33:41.884Z,10.70
2022-11-30T04:36:28.735Z,14.27
2022-11-30T04:38:55.416Z,9.77
2022-11-30T04:41:22.178Z,10.00
2022-11-30T04:43:48.968Z,11.00
2022-11-30T04:46:15.920Z,10.17
2022-11-30T04:48:42.665Z,10.07
2022-11-30T04:51:09.775Z,10.50
2022-11-30T04:53:40.058Z,11.23
2022-11-30T04:56:11.475Z,10.90
2022-11-30T04:58:39.888Z,12.27
2022-11-30T05:01:07.931Z,11.57
2022-11-30T05:03:35.571Z,11.07
2022-11-30T05:06:03.466Z,10.67
2022-11-30T05:08:30.474Z,11.50
2022-11-30T05:10:57.403Z,10.47
2022-11-30T05:13:26.206Z,11.90
2022-11-30T05:15:56.387Z,13.23
2022-11-30T05:18:27.583Z,10.77
2022-11-30T05:20:54.384Z,11.23
2022-11-30T05:23:21.881Z,12.30
2022-11-30T05:25:49.037Z,11.93
2022-11-30T05:28:18.807Z,12.70
2022-11-30T05:30:45.789Z,14.50
2022-11-30T05:33:13.727Z,10.93
2022-11-30T05:35:40.895Z,13.00
2022-11-30T05:38:07.645Z,10.70
2022-11-30T05:40:36.868Z,10.27
2022-11-30T05:43:07.878Z,11.03
2022-11-30T05:45:34.627Z,11.13
2022-11-30T05:48:01.488Z,10.27
2022-11-30T05:50:28.424Z,12.33
2022-11-30T05:52:56.439Z,12.50
2022-11-30T05:55:24.693Z,13.90
2022-11-30T05:57:51.612Z,12.73
2022-11-30T06:00:19.856Z,11.63
2022-11-30T06:02:47.221Z,12.60
2022-11-30T06:05:14.137Z,14.03
2022-11-30T06:07:41.304Z,13.53
2022-11-30T06:10:10.273Z,14.50
2022-11-30T06:12:37.016Z,14.03
2022-11-30T06:15:04.420Z,14.40
2022-11-30T06:17:31.110Z,14.07
2022-11-30T06:19:57.810Z,14.13
2022-11-30T06:22:24.534Z,13.67
2022-11-30T06:24:51.363Z,14.20
2022-11-30T06:27:18.133Z,15.00
2022-11-30T06:29:44.840Z,13.70
2022-11-30T06:32:11.508Z,18.63
2022-11-30T06:34:38.212Z,14.93
2022-11-30T06:37:04.963Z,14.83
2022-11-30T06:40:04.071Z,16.73
2022-11-30T06:42:21.432Z,14.07
2022-11-30T06:44:48.985Z,13.30
2022-11-30T06:47:17.211Z,12.93
2022-11-30T06:49:43.939Z,14.23
2022-11-30T06:52:10.663Z,14.17
2022-11-30T06:54:38.786Z,15.30
2022-11-30T06:57:05.544Z,10.90
2022-11-30T06:59:32.224Z,12.03
2022-11-30T07:02:04.227Z,11.77
2022-11-30T07:04:36.738Z,12.13
2022-11-30T07:07:03.581Z,12.73
2022-11-30T07:09:32.194Z,11.67
2022-11-30T07:11:59.161Z,11.70
2022-11-30T07:14:25.968Z,11.70
2022-11-30T07:16:53.313Z,12.57
2022-11-30T07:19:20.088Z,11.80
2022-11-30T07:21:46.824Z,10.37
2022-11-30T07:24:32.543Z,13.27
2022-11-30T07:27:02.569Z,10.80
2022-11-30T07:29:30.124Z,12.03
2022-11-30T07:31:57.023Z,11.97
2022-11-30T07:34:24.873Z,11.90
2022-11-30T07:36:51.569Z,10.87
2022-11-30T07:39:23.651Z,11.80
2022-11-30T07:41:51.527Z,13.97
2022-11-30T07:44:20.938Z,13.17
2022-11-30T07:46:47.712Z,13.43
2022-11-30T07:49:14.520Z,11.30
2022-11-30T07:51:41.426Z,14.33
2022-11-30T07:54:08.195Z,11.67
2022-11-30T07:56:39.012Z,13.83
2022-11-30T07:59:05.811Z,14.67
2022-11-30T08:01:33.692Z,11.90
2022-11-30T08:04:00.819Z,11.37
2022-11-30T08:06:32.206Z,12.93
2022-11-30T08:09:03.062Z,18.87
2022-11-30T08:11:34.723Z,13.73
2022-11-30T08:14:03.179Z,12.53
2022-11-30T08:16:35.839Z,12.10
2022-11-30T08:19:02.670Z,17.65
2022-11-30T08:21:31.986Z,14.90
2022-11-30T08:23:58.812Z,15.03
2022-11-30T08:26:32.788Z,12.80
2022-11-30T08:29:02.733Z,13.97
2022-11-30T08:31:35.871Z,12.63
2022-11-30T08:34:13.549Z,13.33
2022-11-30T08:36:41.740Z,15.60
2022-11-30T08:39:12.331Z,14.23
2022-11-30T08:41:39.306Z,16.17
2022-11-30T08:44:06.762Z,13.80
2022-11-30T08:49:23.940Z,13.53
2022-11-30T08:57:33.228Z,15.30
2022-11-30T09:00:00.036Z,15.93
2022-11-30T09:02:28.945Z,15.00
2022-11-30T09:04:55.837Z,15.93
2022-11-30T09:07:22.711Z,15.77
2022-11-30T09:09:49.500Z,13.87
2022-11-30T09:12:16.244Z,15.03
2022-11-30T09:14:43.052Z,15.07
2022-11-30T09:17:09.925Z,16.63
2022-11-30T09:19:39.261Z,14.37
2022-11-30T09:22:05.929Z,15.43
2022-11-30T09:24:33.835Z,15.17
2022-11-30T09:27:00.714Z,16.10
2022-11-30T09:29:27.496Z,15.23
2022-11-30T09:31:54.203Z,17.23
2022-11-30T09:34:20.968Z,16.60
2022-11-30T09:36:47.733Z,18.60
2022-11-30T09:39:14.455Z,17.23
2022-11-30T09:42:07.382Z,19.13
2022-11-30T09:45:06.083Z,16.57
2022-11-30T09:47:54.568Z,15.17
2022-11-30T09:50:27.728Z,15.20
2022-11-30T09:53:01.149Z,16.60
2022-11-30T09:55:34.755Z,15.77
2022-11-30T09:58:05.679Z,16.57
2022-11-30T10:00:41.659Z,18.17
2022-11-30T10:03:08.478Z,19.93
2022-11-30T10:05:59.689Z,18.80
2022-11-30T10:09:14.693Z,14.77
2022-11-30T10:11:50.095Z,18.03
2022-11-30T10:14:46.027Z,18.87
2022-11-30T10:17:54.154Z,16.80
2022-11-30T10:20:36.276Z,17.60
2022-11-30T10:23:46.596Z,19.07
2022-11-30T10:26:16.770Z,18.10
2022-11-30T10:28:57.581Z,18.53
2022-11-30T10:31:38.298Z,19.33
2022-11-30T10:34:31.090Z,17.80
2022-11-30T10:37:21.244Z,16.63
2022-11-30T10:40:23.388Z,19.60
2022-11-30T10:43:10.575Z,20.03
2022-11-30T10:45:47.115Z,17.40
2022-11-30T10:48:40.500Z,22.03
2022-11-30T10:51:09.302Z,18.07
2022-11-30T10:53:37.269Z,19.27
2022-11-30T10:56:13.958Z,21.40
2022-11-30T10:59:03.854Z,20.60
2022-11-30T11:01:34.041Z,19.23
2022-11-30T11:04:17.761Z,18.60
2022-11-30T11:07:07.839Z,18.00
2022-11-30T11:09:46.702Z,16.87
2022-11-30T11:12:34.758Z,19.50
2022-11-30T11:15:18.789Z,18.80
2022-11-30T11:17:46.376Z,21.60
2022-11-30T11:21:02.640Z,19.37
2022-11-30T11:23:41.704Z,18.23
2022-11-30T11:26:23.640Z,19.97
2022-11-30T11:28:53.780Z,19.30
2022-11-30T11:31:42.178Z,21.87
2022-11-30T11:34:26.694Z,20.57
2022-11-30T11:37:28.523Z,21.90
2022-11-30T11:40:24.980Z,20.10
2022-11-30T11:43:00.223Z,20.87
2022-11-30T11:45:34.846Z,21.90
2022-11-30T11:48:06.096Z,21.27
2022-11-30T11:51:26.084Z,21.57
2022-11-30T11:54:19.512Z,21.17
2022-11-30T11:56:46.832Z,24.93
2022-11-30T11:59:23.444Z,23.10
2022-11-30T12:02:18.811Z,23.47
2022-11-30T12:04:57.705Z,21.73
2022-11-30T12:07:40.925Z,22.97
2022-11-30T12:13:41.858Z,21.77
2022-11-30T12:17:06.193Z,22.37
2022-11-30T12:19:51.992Z,22.07
2022-11-30T12:23:08.793Z,22.07
2022-11-30T12:25:55.269Z,21.33
2022-11-30T12:28:31.569Z,19.80
2022-11-30T12:31:14.794Z,20.93
2022-11-30T12:34:12.467Z,21.03
2022-11-30T12:36:46.515Z,22.83
2022-11-30T12:39:57.168Z,19.33
2022-11-30T12:42:46.506Z,20.40
2022-11-30T12:45:39.447Z,19.10
2022-11-30T12:48:29.120Z,19.57
2022-11-30T12:51:07.783Z,18.70
2022-11-30T12:54:19.424Z,21.20
2022-11-30T12:57:16.144Z,19.33
2022-11-30T12:59:58.323Z,20.03
2022-11-30T13:02:57.175Z,18.80
2022-11-30T13:05:48.737Z,19.57
2022-11-30T13:08:57.962Z,20.87
2022-11-30T13:11:37.926Z,21.30
2022-11-30T13:14:37.611Z,19.97
2022-11-30T13:17:07.855Z,23.03
2022-11-30T13:20:08.076Z,25.50
2022-11-30T13:23:05.728Z,20.93
2022-11-30T13:26:09.397Z,23.03
2022-11-30T13:28:57.917Z,21.90
2022-11-30T13:31:41.639Z,24.73
2022-11-30T13:34:28.608Z,24.80
2022-11-30T13:37:05.717Z,24.43
2022-11-30T13:39:52.770Z,27.33
2022-11-30T13:42:40.495Z,23.87
2022-11-30T13:45:13.294Z,24.67
2022-11-30T13:47:49.613Z,24.47
2022-11-30T13:50:31.358Z,22.57
2022-11-30T13:52:58.346Z,20.90
2022-11-30T13:55:34.046Z,22.13
2022-11-30T13:58:00.994Z,22.80
2022-11-30T14:00:30.763Z,20.57
2022-11-30T14:03:17.294Z,20.30
2022-11-30T14:06:08.613Z,25.93
2022-11-30T14:08:38.406Z,23.50
2022-11-30T14:11:17.782Z,18.60
2022-11-30T14:13:45.182Z,21.90
2022-11-30T14:16:29.709Z,20.77
2022-11-30T14:18:57.782Z,21.37
2022-11-30T14:21:33.428Z,22.00
2022-11-30T14:24:23.008Z,22.40
2022-11-30T14:26:52.453Z,23.47
2022-11-30T14:29:31.403Z,21.57
2022-11-30T14:32:42.248Z,21.47
2022-11-30T14:35:16.028Z,18.93
2022-11-30T14:37:56.306Z,19.40
2022-11-30T14:40:31.298Z,20.90
2022-11-30T14:43:02.526Z,21.37
2022-11-30T14:45:34.392Z,21.40
2022-11-30T14:48:15.725Z,22.60
2022-11-30T14:50:58.491Z,19.50
2022-11-30T14:53:53.734Z,20.33
2022-11-30T14:56:35.798Z,21.97
2022-11-30T14:59:57.047Z,19.10
2022-11-30T15:02:37.381Z,22.37
2022-11-30T15:05:08.640Z,18.57
2022-11-30T15:07:39.618Z,20.27
2022-11-30T15:10:15.323Z,21.47
2022-11-30T15:12:44.959Z,19.17
2022-11-30T15:15:20.844Z,21.43
2022-11-30T15:17:53.467Z,24.47
2022-11-30T15:20:50.113Z,20.43
2022-11-30T15:23:17.990Z,19.93
2022-11-30T15:26:15.180Z,19.73
2022-11-30T15:28:55.155Z,19.17
2022-11-30T15:31:22.522Z,19.93
2022-11-30T15:33:53.443Z,20.47
2022-11-30T15:36:33.445Z,18.10
2022-11-30T15:39:06.240Z,18.37
2022-11-30T15:41:35.403Z,17.13
2022-11-30T15:44:25.189Z,20.93
2022-11-30T15:47:02.446Z,17.03
2022-11-30T15:49:36.287Z,20.07
2022-11-30T15:52:17.366Z,19.20
2022-11-30T15:54:55.408Z,18.80
2022-11-30T15:57:59.403Z,24.67
2022-11-30T16:00:26.506Z,18.90
2022-11-30T16:03:12.859Z,19.83
2022-11-30T16:05:55.423Z,19.17
2022-11-30T16:08:22.474Z,19.67
2022-11-30T16:10:50.350Z,22.47
2022-11-30T16:13:24.022Z,21.10
2022-11-30T16:15:52.547Z,20.27
2022-11-30T16:18:28.875Z,23.30
2022-11-30T16:21:00.037Z,27.90
2022-11-30T16:23:28.033Z,25.33
2022-11-30T16:25:56.223Z,24.57
2022-11-30T16:28:25.085Z,26.53
2022-11-30T16:30:54.479Z,28.90
2022-11-30T16:33:30.487Z,35.80
2022-11-30T16:36:24.118Z,30.87
2022-11-30T16:38:52.525Z,26.67
2022-11-30T16:41:27.248Z,27.47
2022-11-30T16:43:57.584Z,25.37
2022-11-30T16:46:29.068Z,25.17
2022-11-30T16:48:56.320Z,23.93
2022-11-30T16:51:27.743Z,21.73
2022-11-30T16:53:55.204Z,24.63
2022-11-30T16:56:22.725Z,21.30
2022-11-30T16:58:50.720Z,43.30
2022-11-30T17:01:38.175Z,45.33
2022-11-30T17:04:32.575Z,45.00
2022-11-30T17:07:02.824Z,38.40
2022-11-30T17:09:30.573Z,36.77
2022-11-30T17:11:57.805Z,34.47
2022-11-30T17:14:25.029Z,33.33
2022-11-30T17:16:54.016Z,34.20
2022-11-30T17:19:20.970Z,30.37
2022-11-30T17:21:48.792Z,32.30
2022-11-30T17:24:15.916Z,32.87
2022-11-30T17:26:42.686Z,33.07
2022-11-30T17:29:09.544Z,31.47
2022-11-30T17:31:37.418Z,25.87
2022-11-30T17:34:04.355Z,27.20
2022-11-30T17:36:31.099Z,33.27
2022-11-30T17:39:05.492Z,32.03
2022-11-30T17:41:32.319Z,28.30
2022-11-30T17:44:00.670Z,26.43
2022-11-30T17:46:27.599Z,38.27
2022-11-30T17:48:56.019Z,36.20
2022-11-30T17:51:22.969Z,35.10
2022-11-30T17:53:49.786Z,41.43
2022-11-30T17:56:17.682Z,36.03
2022-11-30T17:58:46.501Z,31.27
2022-11-30T18:01:26.776Z,33.13
2022-11-30T18:03:55.347Z,29.80
2022-11-30T18:06:22.078Z,26.23
2022-11-30T18:08:48.871Z,28.53
2022-11-30T18:11:20.409Z,27.00
2022-11-30T18:13:50.031Z,28.07
2022-11-30T18:16:19.957Z,28.60
2022-11-30T18:18:48.521Z,29.33
2022-11-30T18:21:22.311Z,28.70
2022-11-30T18:23:49.839Z,23.80
2022-11-30T18:26:21.101Z,26.07
2022-11-30T18:28:58.863Z,24.97
2022-11-30T18:31:27.727Z,23.83
2022-11-30T18:34:00.967Z,24.17
2022-11-30T18:36:29.303Z,29.50
2022-11-30T18:38:57.254Z,26.23
2022-11-30T18:41:26.230Z,25.93
2022-11-30T18:43:53.794Z,27.27
2022-11-30T18:46:21.161Z,28.50
2022-11-30T18:48:51.199Z,29.73
2022-11-30T18:51:22.700Z,28.03
2022-11-30T18:53:49.886Z,26.77
2022-11-30T18:56:20.549Z,27.03
2022-11-30T18:58:48.537Z,26.73
2022-11-30T19:01:18.138Z,32.33
2022-11-30T19:03:58.462Z,25.80
2022-11-30T19:06:31.943Z,34.20
2022-11-30T19:09:03.436Z,31.87
2022-11-30T19:11:33.466Z,27.03
2022-11-30T19:14:01.530Z,28.27
2022-11-30T19:16:31.052Z,26.87
2022-11-30T19:19:06.755Z,26.77
2022-11-30T19:21:34.263Z,23.77
2022-11-30T19:24:02.468Z,24.63
2022-11-30T19:26:29.625Z,27.50
2022-11-30T19:28:57.926Z,25.97
2022-11-30T19:31:26.078Z,23.57
2022-11-30T19:33:55.680Z,25.90
2022-11-30T19:36:29.873Z,23.17
2022-11-30T19:38:59.973Z,21.40
2022-11-30T19:41:30.034Z,22.90
2022-11-30T19:44:03.552Z,23.20
2022-11-30T19:46:32.705Z,24.30
2022-11-30T19:49:01.966Z,23.73
2022-11-30T19:51:31.105Z,23.50
2022-11-30T19:53:59.259Z,25.67
2022-11-30T19:56:29.727Z,27.73
2022-11-30T19:59:03.991Z,24.40
2022-11-30T20:01:31.854Z,27.10
2022-11-30T20:03:59.014Z,28.97
2022-11-30T20:06:35.627Z,29.00
2022-11-30T20:09:05.467Z,30.63
2022-11-30T20:11:33.094Z,32.90
2022-11-30T20:14:00.306Z,37.47
2022-11-30T20:16:27.815Z,36.30
2022-11-30T20:18:57.768Z,32.33
2022-11-30T20:21:29.294Z,32.33
2022-11-30T20:23:59.241Z,30.63
2022-11-30T20:26:30.486Z,31.17
2022-11-30T20:28:59.745Z,28.37
2022-11-30T20:31:28.761Z,28.67
2022-11-30T20:33:55.586Z,27.10
2022-11-30T20:36:23.209Z,28.03
2022-11-30T20:38:50.210Z,28.50
2022-11-30T20:41:21.211Z,30.03
2022-11-30T20:43:48.237Z,25.27
2022-11-30T20:46:25.569Z,25.53
2022-11-30T20:48:53.457Z,26.67
2022-11-30T20:51:32.772Z,25.47
2022-11-30T20:54:06.947Z,25.33
2022-11-30T20:56:37.591Z,22.57
2022-11-30T20:59:17.345Z,26.40
2022-11-30T21:01:46.944Z,24.57
2022-11-30T21:04:13.787Z,23.87
2022-11-30T21:06:45.338Z,25.40
2022-11-30T21:09:18.123Z,25.53
2022-11-30T21:11:46.272Z,26.30
2022-11-30T21:14:14.732Z,29.53
2022-11-30T21:16:41.734Z,26.83
2022-11-30T21:19:10.999Z,27.13
2022-11-30T21:21:38.272Z,29.33
2022-11-30T21:24:10.713Z,26.30
2022-11-30T21:26:42.909Z,24.53
2022-11-30T21:29:16.660Z,27.03
2022-11-30T21:31:44.828Z,24.13
2022-11-30T21:34:12.171Z,25.90
2022-11-30T21:36:39.130Z,28.23
2022-11-30T21:39:07.579Z,27.00
2022-11-30T21:41:38.028Z,24.27
2022-11-30T21:44:07.920Z,25.07
2022-11-30T21:46:34.850Z,23.87
2022-11-30T21:49:10.174Z,23.23
2022-11-30T21:51:37.849Z,23.53
2022-11-30T21:54:08.456Z,27.53
2022-11-30T21:56:38.199Z,24.37
2022-11-30T21:59:07.820Z,26.40
2022-11-30T22:01:41.540Z,26.27
2022-11-30T22:04:11.578Z,24.30
2022-11-30T22:06:40.718Z,28.63
2022-11-30T22:09:14.102Z,33.20
2022-11-30T22:11:44.910Z,30.27
2022-11-30T22:14:18.429Z,26.07
2022-11-30T22:16:45.889Z,28.47
2022-11-30T22:19:13.023Z,27.03
2022-11-30T22:21:40.775Z,25.60
2022-11-30T22:24:16.145Z,27.37
2022-11-30T22:26:49.378Z,26.40
2022-11-30T22:29:24.345Z,27.67
2022-11-30T22:31:53.602Z,24.80
2022-11-30T22:34:21.001Z,26.97
2022-11-30T22:36:48.551Z,26.57
2022-11-30T22:39:19.664Z,26.77
2022-11-30T22:41:53.063Z,22.87
2022-11-30T22:44:22.213Z,25.40
2022-11-30T22:46:49.025Z,24.83
2022-11-30T22:49:21.343Z,24.20
2022-11-30T22:51:50.253Z,26.87
2022-11-30T22:54:17.266Z,27.97
2022-11-30T22:56:46.185Z,29.00
2022-11-30T22:59:14.593Z,30.53
2022-11-30T23:01:50.393Z,30.57
2022-11-30T23:04:23.305Z,30.67
2022-11-30T23:06:51.282Z,31.43
2022-11-30T23:09:22.201Z,30.73
2022-11-30T23:11:50.531Z,32.17
2022-11-30T23:14:17.823Z,26.77
2022-11-30T23:16:45.642Z,30.73
2022-11-30T23:19:13.389Z,29.90
2022-11-30T23:21:44.791Z,28.30
2022-11-30T23:24:20.889Z,27.83
2022-11-30T23:26:48.331Z,29.47
2022-11-30T23:29:17.298Z,27.87
2022-11-30T23:31:45.828Z,31.00
2022-11-30T23:34:21.574Z,29.20
2022-11-30T23:36:49.314Z,26.30
2022-11-30T23:39:18.675Z,34.73
2022-11-30T23:41:45.910Z,30.37
2022-11-30T23:44:13.539Z,32.00
2022-11-30T23:46:41.084Z,30.30
2022-11-30T23:49:08.395Z,29.77
2022-11-30T23:51:35.800Z,28.93
2022-11-30T23:54:02.555Z,28.47
2022-11-30T23:56:29.579Z,28.63
2022-11-30T23:58:56.302Z,28.70
